GTI78 YSSY-YPAD
Flight info
| Callsign | GTI78 |
|---|---|
| Flight time | 1h 8m |
| Altitude | 34000 |
| Route | DCT TESAT A576 KADOM H44 MAXEM Q60 KAKLU H309 AD DCT |
| Aircraft | B77L/H-SDE1E2E3FGHIJ2J3J4J5M1RWXY/LB1D1 |
Departure
| Time | 2026-05-05 07:40 |
|---|---|
| Airport | Sydney Kingsford Smith International Airport (YSSY) |
Arrival
| Time | 2026-05-05 08:48 |
|---|---|
| Airport | Adelaide International Airport (YPAD) |
| Time | Latitude | Longitude | Altitude | Speed | Heading |
|---|---|---|---|---|---|
| 2026-05-05 07:21 | -33.93176 | 151.16794 | 25 ft | 0 kts | 257° |
| 2026-05-05 07:34 | -33.93175 | 151.16798 | 25 ft | 3 kts | 257° |
| 2026-05-05 07:34 | -33.93171 | 151.16821 | 27 ft | 3 kts | 257° |
| 2026-05-05 07:34 | -33.93167 | 151.16843 | 31 ft | 3 kts | 257° |
| 2026-05-05 07:35 | -33.93163 | 151.16865 | 30 ft | 3 kts | 257° |
| 2026-05-05 07:35 | -33.93159 | 151.16887 | 31 ft | 3 kts | 274° |
| 2026-05-05 07:35 | -33.93164 | 151.16908 | 30 ft | 3 kts | 315° |
| 2026-05-05 07:35 | -33.93177 | 151.16919 | 31 ft | 0 kts | 348° |
| 2026-05-05 07:36 | -33.93176 | 151.16919 | 28 ft | 0 kts | 348° |
| 2026-05-05 07:36 | -33.93164 | 151.16916 | 31 ft | 6 kts | 348° |
| 2026-05-05 07:36 | -33.93081 | 151.16913 | 28 ft | 18 kts | 352° |
| 2026-05-05 07:37 | -33.92990 | 151.16955 | 29 ft | 7 kts | 57° |
| 2026-05-05 07:37 | -33.92973 | 151.17012 | 26 ft | 0 kts | 75° |
| 2026-05-05 07:37 | -33.92971 | 151.17025 | 27 ft | 9 kts | 75° |
| 2026-05-05 07:38 | -33.92987 | 151.17175 | 27 ft | 26 kts | 149° |
| 2026-05-05 07:38 | -33.93076 | 151.17197 | 27 ft | 0 kts | 168° |
| 2026-05-05 07:39 | -33.93211 | 151.17231 | 27 ft | 50 kts | 168° |
| 2026-05-05 07:39 | -33.93792 | 151.17385 | 22 ft | 118 kts | 168° |
| 2026-05-05 07:39 | -33.94775 | 151.17649 | 37 ft | 167 kts | 165° |
| 2026-05-05 07:40 | -33.95984 | 151.18005 | 300 ft | 188 kts | 166° |
| 2026-05-05 07:40 | -33.97322 | 151.18360 | 580 ft | 207 kts | 167° |
| 2026-05-05 07:40 | -33.98767 | 151.18417 | 1064 ft | 213 kts | 192° |
| 2026-05-05 07:40 | -34.00176 | 151.18021 | 1865 ft | 209 kts | 189° |
| 2026-05-05 07:41 | -34.01697 | 151.17747 | 2234 ft | 231 kts | 188° |
| 2026-05-05 07:41 | -34.03328 | 151.17598 | 2713 ft | 243 kts | 172° |
| 2026-05-05 07:41 | -34.04917 | 151.18170 | 3457 ft | 241 kts | 163° |
| 2026-05-05 07:41 | -34.06541 | 151.18783 | 4089 ft | 250 kts | 166° |
| 2026-05-05 07:42 | -34.08220 | 151.19364 | 4837 ft | 252 kts | 167° |
| 2026-05-05 07:42 | -34.09928 | 151.19934 | 5494 ft | 258 kts | 167° |
| 2026-05-05 07:42 | -34.11701 | 151.20517 | 6110 ft | 267 kts | 167° |
| 2026-05-05 07:42 | -34.13517 | 151.21117 | 6820 ft | 272 kts | 168° |
| 2026-05-05 07:43 | -34.15357 | 151.21730 | 7552 ft | 275 kts | 167° |
| 2026-05-05 07:43 | -34.17226 | 151.22076 | 8078 ft | 279 kts | 184° |
| 2026-05-05 07:43 | -34.19179 | 151.21864 | 8702 ft | 281 kts | 189° |
| 2026-05-05 07:43 | -34.21094 | 151.21408 | 9307 ft | 282 kts | 206° |
| 2026-05-05 07:44 | -34.22679 | 151.20118 | 10039 ft | 279 kts | 226° |
| 2026-05-05 07:44 | -34.23872 | 151.18238 | 10520 ft | 287 kts | 239° |
| 2026-05-05 07:44 | -34.24918 | 151.16109 | 11033 ft | 296 kts | 241° |
| 2026-05-05 07:44 | -34.25653 | 151.13768 | 11591 ft | 303 kts | 261° |
| 2026-05-05 07:45 | -34.25842 | 151.11244 | 12347 ft | 305 kts | 266° |
| 2026-05-05 07:45 | -34.25583 | 151.08683 | 13069 ft | 314 kts | 288° |
| 2026-05-05 07:45 | -34.24445 | 151.06379 | 13911 ft | 324 kts | 310° |
| 2026-05-05 07:45 | -34.22647 | 151.04681 | 14713 ft | 333 kts | 329° |
| 2026-05-05 07:46 | -34.20451 | 151.03834 | 15404 ft | 341 kts | 346° |
| 2026-05-05 07:46 | -34.18088 | 151.03356 | 16105 ft | 347 kts | 347° |
| 2026-05-05 07:46 | -34.15701 | 151.02851 | 16885 ft | 350 kts | 346° |
| 2026-05-05 07:46 | -34.13295 | 151.02311 | 17719 ft | 351 kts | 346° |
| 2026-05-05 07:47 | -34.10887 | 151.01714 | 18438 ft | 352 kts | 340° |
| 2026-05-05 07:47 | -34.08661 | 151.00395 | 18579 ft | 365 kts | 317° |
| 2026-05-05 07:47 | -34.07010 | 150.98058 | 18730 ft | 377 kts | 298° |
| 2026-05-05 07:47 | -34.05682 | 150.95249 | 18857 ft | 394 kts | 299° |
| 2026-05-05 07:48 | -34.04237 | 150.92384 | 19307 ft | 404 kts | 300° |
| 2026-05-05 07:48 | -34.02723 | 150.89486 | 19899 ft | 410 kts | 301° |
| 2026-05-05 07:48 | -34.01179 | 150.86565 | 20617 ft | 412 kts | 301° |
| 2026-05-05 07:48 | -33.99655 | 150.83689 | 21364 ft | 414 kts | 301° |
| 2026-05-05 07:49 | -33.98097 | 150.80748 | 22069 ft | 416 kts | 301° |
| 2026-05-05 07:49 | -33.96530 | 150.77787 | 22753 ft | 419 kts | 301° |
| 2026-05-05 07:49 | -33.94951 | 150.74804 | 23435 ft | 423 kts | 301° |
| 2026-05-05 07:49 | -33.93371 | 150.71822 | 23988 ft | 427 kts | 301° |
| 2026-05-05 07:50 | -33.91769 | 150.68798 | 24567 ft | 429 kts | 302° |
| 2026-05-05 07:50 | -33.90159 | 150.65761 | 25209 ft | 429 kts | 302° |
| 2026-05-05 07:50 | -33.88569 | 150.62765 | 25844 ft | 430 kts | 302° |
| 2026-05-05 07:50 | -33.86943 | 150.59703 | 26423 ft | 432 kts | 302° |
| 2026-05-05 07:51 | -33.85319 | 150.56647 | 26980 ft | 434 kts | 302° |
| 2026-05-05 07:51 | -33.83704 | 150.53611 | 27527 ft | 436 kts | 302° |
| 2026-05-05 07:51 | -33.82061 | 150.50526 | 28084 ft | 438 kts | 302° |
| 2026-05-05 07:51 | -33.80408 | 150.47424 | 28651 ft | 439 kts | 302° |
| 2026-05-05 07:52 | -33.78750 | 150.44314 | 29127 ft | 442 kts | 302° |
| 2026-05-05 07:52 | -33.77100 | 150.41220 | 29515 ft | 446 kts | 302° |
| 2026-05-05 07:52 | -33.75414 | 150.38065 | 30023 ft | 447 kts | 302° |
| 2026-05-05 07:52 | -33.73769 | 150.34940 | 30633 ft | 442 kts | 299° |
| 2026-05-05 07:53 | -33.72550 | 150.31583 | 31302 ft | 436 kts | 288° |
| 2026-05-05 07:53 | -33.71870 | 150.28045 | 31974 ft | 434 kts | 281° |
| 2026-05-05 07:53 | -33.71565 | 150.24430 | 32530 ft | 434 kts | 274° |
| 2026-05-05 07:53 | -33.71776 | 150.20801 | 32993 ft | 436 kts | 267° |
| 2026-05-05 07:54 | -33.72125 | 150.17191 | 33479 ft | 434 kts | 268° |
| 2026-05-05 07:54 | -33.72477 | 150.13586 | 33852 ft | 435 kts | 268° |
| 2026-05-05 07:54 | -33.72822 | 150.09958 | 34300 ft | 433 kts | 268° |
| 2026-05-05 07:54 | -33.73146 | 150.06421 | 34678 ft | 432 kts | 268° |
| 2026-05-05 07:55 | -33.73468 | 150.02825 | 34992 ft | 432 kts | 268° |
| 2026-05-05 07:55 | -33.73782 | 149.99231 | 35239 ft | 434 kts | 268° |
| 2026-05-05 07:55 | -33.74095 | 149.95584 | 35112 ft | 439 kts | 268° |
| 2026-05-05 07:55 | -33.74406 | 149.91950 | 35080 ft | 435 kts | 268° |
| 2026-05-05 07:56 | -33.75018 | 149.84775 | 35144 ft | 430 kts | 268° |
| 2026-05-05 07:56 | -33.75586 | 149.78026 | 35320 ft | 432 kts | 268° |
| 2026-05-05 07:56 | -33.76794 | 149.63585 | 35398 ft | 444 kts | 268° |
| 2026-05-05 07:57 | -33.78012 | 149.48744 | 35287 ft | 445 kts | 268° |
| 2026-05-05 07:57 | -33.79201 | 149.34009 | 35053 ft | 434 kts | 268° |
| 2026-05-05 07:57 | -33.80320 | 149.19924 | 35142 ft | 422 kts | 269° |
| 2026-05-05 07:57 | -33.81422 | 149.05787 | 34317 ft | 428 kts | 268° |
| 2026-05-05 07:58 | -33.83608 | 148.77199 | 34227 ft | 434 kts | 268° |
| 2026-05-05 07:58 | -33.84900 | 148.62569 | 34333 ft | 444 kts | 262° |
| 2026-05-05 07:58 | -33.86987 | 148.50273 | 34148 ft | 448 kts | 262° |
| 2026-05-05 07:59 | -33.88202 | 148.43046 | 34207 ft | 440 kts | 262° |
| 2026-05-05 07:59 | -33.89401 | 148.35803 | 34226 ft | 442 kts | 262° |
| 2026-05-05 08:00 | -33.90597 | 148.28514 | 34235 ft | 443 kts | 262° |
| 2026-05-05 08:00 | -33.91788 | 148.21242 | 34229 ft | 444 kts | 262° |
| 2026-05-05 08:01 | -33.92976 | 148.13964 | 34227 ft | 445 kts | 262° |
| 2026-05-05 08:01 | -33.94168 | 148.06630 | 34227 ft | 446 kts | 262° |
| 2026-05-05 08:02 | -33.95358 | 147.99286 | 34223 ft | 446 kts | 262° |
| 2026-05-05 08:02 | -33.96534 | 147.91990 | 34221 ft | 446 kts | 262° |
| 2026-05-05 08:03 | -33.97715 | 147.84642 | 34225 ft | 445 kts | 262° |
| 2026-05-05 08:03 | -33.98890 | 147.77299 | 34228 ft | 445 kts | 262° |
| 2026-05-05 08:04 | -34.00053 | 147.69999 | 34226 ft | 445 kts | 262° |
| 2026-05-05 08:04 | -34.03570 | 147.47750 | 34219 ft | 447 kts | 261° |
| 2026-05-05 08:05 | -34.08175 | 147.18202 | 34244 ft | 449 kts | 261° |
| 2026-05-05 08:05 | -34.12721 | 146.88542 | 34240 ft | 452 kts | 261° |
| 2026-05-05 08:06 | -34.17240 | 146.58553 | 34238 ft | 453 kts | 261° |
| 2026-05-05 08:06 | -34.21684 | 146.28553 | 34231 ft | 453 kts | 261° |
| 2026-05-05 08:07 | -34.25934 | 145.98604 | 34207 ft | 453 kts | 262° |
| 2026-05-05 08:07 | -34.29568 | 145.68603 | 34219 ft | 452 kts | 262° |
| 2026-05-05 08:08 | -34.33198 | 145.38450 | 34235 ft | 451 kts | 262° |
| 2026-05-05 08:08 | -34.36725 | 145.08509 | 34256 ft | 450 kts | 262° |
| 2026-05-05 08:09 | -34.39618 | 144.83459 | 34245 ft | 450 kts | 262° |
| 2026-05-05 08:09 | -34.43574 | 144.48428 | 34241 ft | 449 kts | 262° |
| 2026-05-05 08:10 | -34.46869 | 144.18525 | 34230 ft | 448 kts | 262° |
| 2026-05-05 08:10 | -34.50082 | 143.88686 | 34259 ft | 447 kts | 262° |
| 2026-05-05 08:11 | -34.52702 | 143.63817 | 34267 ft | 446 kts | 263° |
| 2026-05-05 08:11 | -34.55785 | 143.33907 | 34256 ft | 445 kts | 263° |
| 2026-05-05 08:12 | -34.58790 | 143.04025 | 34262 ft | 446 kts | 263° |
| 2026-05-05 08:12 | -34.61714 | 142.74201 | 34265 ft | 447 kts | 263° |
| 2026-05-05 08:13 | -34.64065 | 142.47482 | 34229 ft | 449 kts | 266° |
| 2026-05-05 08:13 | -34.64441 | 142.39909 | 34251 ft | 449 kts | 266° |
| 2026-05-05 08:14 | -34.64827 | 142.32368 | 34251 ft | 449 kts | 266° |
| 2026-05-05 08:14 | -34.65237 | 142.24789 | 34261 ft | 449 kts | 266° |
| 2026-05-05 08:15 | -34.65652 | 142.17240 | 34259 ft | 449 kts | 266° |
| 2026-05-05 08:15 | -34.66066 | 142.09636 | 34248 ft | 449 kts | 266° |
| 2026-05-05 08:16 | -34.66471 | 142.02102 | 34256 ft | 448 kts | 266° |
| 2026-05-05 08:16 | -34.66873 | 141.94538 | 34255 ft | 448 kts | 266° |
| 2026-05-05 08:17 | -34.67267 | 141.87014 | 34260 ft | 448 kts | 266° |
| 2026-05-05 08:17 | -34.67658 | 141.79455 | 34271 ft | 448 kts | 266° |
| 2026-05-05 08:18 | -34.68046 | 141.71888 | 34264 ft | 448 kts | 266° |
| 2026-05-05 08:18 | -34.68426 | 141.64365 | 34255 ft | 448 kts | 266° |
| 2026-05-05 08:19 | -34.68804 | 141.56789 | 34267 ft | 448 kts | 266° |
| 2026-05-05 08:19 | -34.69177 | 141.49226 | 34261 ft | 448 kts | 266° |
| 2026-05-05 08:20 | -34.69544 | 141.41695 | 34267 ft | 448 kts | 266° |
| 2026-05-05 08:20 | -34.69908 | 141.34131 | 34268 ft | 448 kts | 266° |
| 2026-05-05 08:21 | -34.70264 | 141.26613 | 34265 ft | 447 kts | 266° |
| 2026-05-05 08:21 | -34.70619 | 141.19037 | 34269 ft | 447 kts | 266° |
| 2026-05-05 08:22 | -34.70967 | 141.11507 | 34232 ft | 441 kts | 266° |
| 2026-05-05 08:22 | -34.71298 | 141.04271 | 34047 ft | 422 kts | 267° |
| 2026-05-05 08:23 | -34.71459 | 141.00740 | 33919 ft | 414 kts | 267° |
| 2026-05-05 08:23 | -34.71617 | 140.97258 | 33634 ft | 410 kts | 267° |
| 2026-05-05 08:23 | -34.71774 | 140.93797 | 33243 ft | 409 kts | 267° |
| 2026-05-05 08:23 | -34.71930 | 140.90340 | 32823 ft | 409 kts | 267° |
| 2026-05-05 08:24 | -34.72083 | 140.86923 | 32458 ft | 408 kts | 267° |
| 2026-05-05 08:24 | -34.72236 | 140.83477 | 32121 ft | 405 kts | 267° |
| 2026-05-05 08:24 | -34.72387 | 140.80056 | 31814 ft | 403 kts | 267° |
| 2026-05-05 08:24 | -34.72535 | 140.76679 | 31490 ft | 401 kts | 267° |
| 2026-05-05 08:25 | -34.72682 | 140.73299 | 31156 ft | 400 kts | 267° |
| 2026-05-05 08:25 | -34.72828 | 140.69927 | 30942 ft | 395 kts | 267° |
| 2026-05-05 08:25 | -34.73111 | 140.63323 | 30604 ft | 392 kts | 267° |
| 2026-05-05 08:26 | -34.73252 | 140.59989 | 30146 ft | 394 kts | 267° |
| 2026-05-05 08:26 | -34.73391 | 140.56696 | 29695 ft | 395 kts | 267° |
| 2026-05-05 08:26 | -34.73531 | 140.53367 | 29349 ft | 393 kts | 267° |
| 2026-05-05 08:26 | -34.73669 | 140.50047 | 29050 ft | 390 kts | 267° |
| 2026-05-05 08:27 | -34.73803 | 140.46800 | 28739 ft | 388 kts | 267° |
| 2026-05-05 08:27 | -34.73938 | 140.43517 | 28411 ft | 386 kts | 268° |
| 2026-05-05 08:27 | -34.74071 | 140.40258 | 28089 ft | 384 kts | 268° |
| 2026-05-05 08:27 | -34.74203 | 140.37013 | 27764 ft | 383 kts | 268° |
| 2026-05-05 08:28 | -34.74332 | 140.33819 | 27378 ft | 381 kts | 268° |
| 2026-05-05 08:28 | -34.74460 | 140.30599 | 26959 ft | 381 kts | 268° |
| 2026-05-05 08:28 | -34.74588 | 140.27378 | 26574 ft | 379 kts | 268° |
| 2026-05-05 08:28 | -34.74715 | 140.24179 | 26224 ft | 377 kts | 268° |
| 2026-05-05 08:29 | -34.74840 | 140.20992 | 25874 ft | 375 kts | 268° |
| 2026-05-05 08:29 | -34.74962 | 140.17854 | 25537 ft | 373 kts | 268° |
| 2026-05-05 08:29 | -34.75084 | 140.14703 | 25229 ft | 371 kts | 268° |
| 2026-05-05 08:30 | -34.75322 | 140.08493 | 24557 ft | 368 kts | 268° |
| 2026-05-05 08:30 | -34.75441 | 140.05379 | 24225 ft | 367 kts | 268° |
| 2026-05-05 08:30 | -34.75557 | 140.02281 | 23903 ft | 366 kts | 268° |
| 2026-05-05 08:30 | -34.75673 | 139.99181 | 23533 ft | 364 kts | 268° |
| 2026-05-05 08:31 | -34.75788 | 139.96105 | 23179 ft | 362 kts | 268° |
| 2026-05-05 08:31 | -34.75900 | 139.93052 | 22871 ft | 360 kts | 268° |
| 2026-05-05 08:31 | -34.75999 | 139.90051 | 22457 ft | 360 kts | 268° |
| 2026-05-05 08:31 | -34.76088 | 139.87000 | 22089 ft | 359 kts | 268° |
| 2026-05-05 08:32 | -34.76172 | 139.83966 | 21768 ft | 357 kts | 268° |
| 2026-05-05 08:32 | -34.76252 | 139.80952 | 21460 ft | 355 kts | 268° |
| 2026-05-05 08:32 | -34.76329 | 139.77980 | 21141 ft | 354 kts | 268° |
| 2026-05-05 08:32 | -34.76405 | 139.74986 | 20809 ft | 352 kts | 268° |
| 2026-05-05 08:33 | -34.76480 | 139.72009 | 20523 ft | 351 kts | 268° |
| 2026-05-05 08:33 | -34.76554 | 139.69047 | 20220 ft | 349 kts | 268° |
| 2026-05-05 08:33 | -34.76627 | 139.66092 | 19911 ft | 348 kts | 268° |
| 2026-05-05 08:33 | -34.76699 | 139.63144 | 19607 ft | 347 kts | 268° |
| 2026-05-05 08:34 | -34.76769 | 139.60250 | 19324 ft | 346 kts | 268° |
| 2026-05-05 08:34 | -34.76838 | 139.57329 | 19044 ft | 345 kts | 268° |
| 2026-05-05 08:34 | -34.76907 | 139.54376 | 18898 ft | 351 kts | 268° |
| 2026-05-05 08:34 | -34.76975 | 139.51413 | 18815 ft | 347 kts | 268° |
| 2026-05-05 08:35 | -34.77042 | 139.48493 | 18548 ft | 341 kts | 268° |
| 2026-05-05 08:35 | -34.77107 | 139.45654 | 18150 ft | 338 kts | 268° |
| 2026-05-05 08:35 | -34.77173 | 139.42787 | 17665 ft | 338 kts | 268° |
| 2026-05-05 08:35 | -34.77237 | 139.39943 | 17303 ft | 333 kts | 268° |
| 2026-05-05 08:36 | -34.77298 | 139.37118 | 16871 ft | 332 kts | 268° |
| 2026-05-05 08:36 | -34.77356 | 139.34359 | 16473 ft | 329 kts | 268° |
| 2026-05-05 08:36 | -34.77412 | 139.31568 | 16002 ft | 329 kts | 268° |
| 2026-05-05 08:36 | -34.77464 | 139.28793 | 15616 ft | 327 kts | 268° |
| 2026-05-05 08:37 | -34.77515 | 139.26018 | 15154 ft | 327 kts | 268° |
| 2026-05-05 08:37 | -34.77562 | 139.23287 | 14773 ft | 325 kts | 268° |
| 2026-05-05 08:37 | -34.77606 | 139.20539 | 14433 ft | 322 kts | 268° |
| 2026-05-05 08:37 | -34.77642 | 139.17914 | 14297 ft | 298 kts | 268° |
| 2026-05-05 08:38 | -34.77672 | 139.15482 | 13973 ft | 278 kts | 268° |
| 2026-05-05 08:38 | -34.77700 | 139.13172 | 13452 ft | 266 kts | 268° |
| 2026-05-05 08:38 | -34.77726 | 139.10945 | 12764 ft | 268 kts | 268° |
| 2026-05-05 08:38 | -34.77754 | 139.08675 | 12441 ft | 264 kts | 268° |
| 2026-05-05 08:39 | -34.77785 | 139.06442 | 12074 ft | 262 kts | 268° |
| 2026-05-05 08:39 | -34.77816 | 139.04236 | 11767 ft | 258 kts | 268° |
| 2026-05-05 08:39 | -34.77847 | 139.02087 | 11399 ft | 257 kts | 268° |
| 2026-05-05 08:39 | -34.77880 | 138.99912 | 11010 ft | 255 kts | 268° |
| 2026-05-05 08:40 | -34.77914 | 138.97754 | 10661 ft | 253 kts | 268° |
| 2026-05-05 08:40 | -34.77948 | 138.95616 | 10283 ft | 252 kts | 268° |
| 2026-05-05 08:40 | -34.77985 | 138.93480 | 9874 ft | 251 kts | 268° |
| 2026-05-05 08:40 | -34.78021 | 138.91362 | 9497 ft | 249 kts | 268° |
| 2026-05-05 08:41 | -34.78058 | 138.89289 | 9144 ft | 245 kts | 268° |
| 2026-05-05 08:41 | -34.78095 | 138.87213 | 8705 ft | 246 kts | 268° |
| 2026-05-05 08:41 | -34.78133 | 138.85116 | 8254 ft | 246 kts | 268° |
| 2026-05-05 08:41 | -34.78169 | 138.83063 | 7872 ft | 245 kts | 268° |
| 2026-05-05 08:42 | -34.78205 | 138.80996 | 7489 ft | 243 kts | 268° |
| 2026-05-05 08:42 | -34.78242 | 138.78942 | 7098 ft | 241 kts | 267° |
| 2026-05-05 08:42 | -34.78621 | 138.76997 | 6573 ft | 240 kts | 241° |
| 2026-05-05 08:42 | -34.79569 | 138.75316 | 6162 ft | 239 kts | 233° |
| 2026-05-05 08:43 | -34.80560 | 138.73802 | 5873 ft | 219 kts | 231° |
| 2026-05-05 08:43 | -34.81498 | 138.72440 | 5449 ft | 206 kts | 231° |
| 2026-05-05 08:43 | -34.82416 | 138.71118 | 4845 ft | 204 kts | 230° |
| 2026-05-05 08:43 | -34.83329 | 138.69804 | 4255 ft | 200 kts | 231° |
| 2026-05-05 08:44 | -34.84223 | 138.68516 | 3980 ft | 202 kts | 231° |
| 2026-05-05 08:44 | -34.85126 | 138.67213 | 3847 ft | 203 kts | 231° |
| 2026-05-05 08:44 | -34.86022 | 138.65921 | 3797 ft | 196 kts | 231° |
| 2026-05-05 08:44 | -34.86894 | 138.64659 | 3770 ft | 189 kts | 230° |
| 2026-05-05 08:45 | -34.87709 | 138.63471 | 3448 ft | 181 kts | 229° |
| 2026-05-05 08:45 | -34.88527 | 138.62310 | 2925 ft | 179 kts | 229° |
| 2026-05-05 08:45 | -34.89329 | 138.61215 | 2456 ft | 167 kts | 231° |
| 2026-05-05 08:45 | -34.89994 | 138.60096 | 1899 ft | 160 kts | 228° |
| 2026-05-05 08:46 | -34.90737 | 138.59150 | 1439 ft | 148 kts | 230° |
| 2026-05-05 08:46 | -34.91362 | 138.58201 | 1001 ft | 138 kts | 231° |
| 2026-05-05 08:46 | -34.91951 | 138.57358 | 622 ft | 121 kts | 229° |
| 2026-05-05 08:46 | -34.92530 | 138.56582 | 405 ft | 138 kts | 231° |
| 2026-05-05 08:47 | -34.93145 | 138.55675 | 315 ft | 128 kts | 232° |
| 2026-05-05 08:47 | -34.93683 | 138.54883 | 67 ft | 119 kts | 233° |
| 2026-05-05 08:47 | -34.94204 | 138.54107 | 30 ft | 114 kts | 231° |
| 2026-05-05 08:47 | -34.94575 | 138.53572 | 20 ft | 72 kts | 231° |
| 2026-05-05 08:48 | -34.94877 | 138.53135 | 31 ft | 62 kts | 229° |
| 2026-05-05 08:48 | -34.95143 | 138.52755 | 19 ft | 56 kts | 230° |
| 2026-05-05 08:48 | -34.95213 | 138.52539 | 20 ft | 17 kts | 307° |
| 2026-05-05 08:48 | -34.95203 | 138.52525 | 19 ft | 0 kts | 313° |
| 2026-05-05 08:49 | -34.95201 | 138.52523 | 19 ft | 0 kts | 313° |
| 2026-05-05 08:49 | -34.95200 | 138.52521 | 19 ft | 0 kts | 313° |
| 2026-05-05 08:49 | -34.95198 | 138.52519 | 19 ft | 0 kts | 313° |
| 2026-05-05 08:49 | -34.95197 | 138.52517 | 19 ft | 0 kts | 313° |
| 2026-05-05 08:50 | -34.95195 | 138.52515 | 19 ft | 0 kts | 313° |
| 2026-05-05 08:50 | -34.95135 | 138.52463 | 22 ft | 24 kts | 340° |
| 2026-05-05 08:50 | -34.94935 | 138.52547 | 26 ft | 34 kts | 38° |
| 2026-05-05 08:50 | -34.94782 | 138.52688 | 28 ft | 22 kts | 37° |
| 2026-05-05 08:51 | -34.94656 | 138.52801 | 32 ft | 22 kts | 36° |
| 2026-05-05 08:51 | -34.94532 | 138.52917 | 29 ft | 22 kts | 40° |
| 2026-05-05 08:51 | -34.94445 | 138.53065 | 28 ft | 22 kts | 85° |
| 2026-05-05 08:51 | -34.94516 | 138.53229 | 26 ft | 22 kts | 122° |
| 2026-05-05 08:52 | -34.94513 | 138.53331 | 24 ft | 12 kts | 57° |
| 2026-05-05 08:52 | -34.94426 | 138.53464 | 21 ft | 30 kts | 50° |
| 2026-05-05 08:52 | -34.94266 | 138.53663 | 24 ft | 32 kts | 20° |
| 2026-05-05 08:52 | -34.94194 | 138.53627 | 24 ft | 5 kts | 305° |
| 2026-05-05 08:53 | -34.94171 | 138.53594 | 25 ft | 5 kts | 314° |
| 2026-05-05 08:53 | -34.94164 | 138.53585 | 26 ft | 0 kts | 314° |